Time;durP1;ratioP1;P1;durP2;ratioP2;P2;SDS_P1;SDS_P2;PMS_P1;PMS_P2;Temp;Humidity;BMP_temperature;BMP_pressure;BME280_temperature;BME280_humidity;BME280_pressure;Samples;Min_cycle;Max_cycle;Signal;HPM_P1;HPM_P2
2022/09/17 00:00:20;;;;;;;;;;;;;;;;;;;;;
2022/09/17 00:03:04;;;;;;;;;;;;;;;;;;;;;
2022/09/17 00:05:43;;;;;;;;;;;;;;;;;;;;;
2022/09/17 00:08:23;;;;;;;;;;;;;;;;;;;;;
2022/09/17 00:13:39;;;;;;;;;3.00;3.00;;;;;13.55;54.54;101617.44;5000869;28;45241;-82
2022/09/17 00:16:12;;;;;;;;;3.00;3.00;;;;;13.57;54.12;101617.41;5000063;28;45475;-81
2022/09/17 00:18:48;;;;;;;;;2.75;2.50;;;;;13.46;54.52;101607.72;5000125;28;48264;-82
2022/09/17 00:21:34;;;;;;;;;3.00;3.00;;;;;13.48;54.67;101615.69;5009154;28;45512;-82
2022/09/17 00:24:03;;;;;;;;;6.50;4.50;;;;;13.48;54.68;101618.31;5021143;28;45467;-82
2022/09/17 00:26:30;;;;;;;;;3.00;2.50;;;;;13.41;54.71;101620.09;5019857;28;45591;-82
2022/09/17 00:28:57;;;;;;;;;2.25;2.25;;;;;13.44;54.65;101628.03;5015842;28;47451;-82
2022/09/17 00:31:24;;;;;;;;;3.00;3.00;;;;;13.37;54.80;101623.63;5001195;28;45262;-82
2022/09/17 00:33:55;;;;;;;;;4.00;4.00;;;;;13.42;55.00;101629.78;5000326;28;45348;-82
2022/09/17 00:37:32;;;;;;;;;;;;;;;;;;;;;
2022/09/17 00:39:59;;;;;;;;;;;;;;;;;;;;;
2022/09/17 00:42:44;;;;;;;;;1.25;1.25;;;;;13.29;54.87;101625.41;5018460;28;72944;-80
2022/09/17 00:45:14;;;;;;;;;3.25;2.25;;;;;13.27;54.89;101624.50;5015561;28;44708;-82
2022/09/17 00:48:48;;;;;;;;;;;;;;;;;;;;;
2022/09/17 00:51:29;;;;;;;;;;;;;;;;;;;;;
2022/09/17 00:54:11;;;;;;;;;2.75;2.00;;;;;13.23;54.85;101625.34;5031472;28;73379;-81
2022/09/17 00:56:46;;;;;;;;;2.00;2.00;;;;;13.16;55.34;101619.19;5019716;28;45530;-82
2022/09/17 00:59:29;;;;;;;;;;;;;;;;;;;;;
2022/09/17 01:01:58;;;;;;;;;3.00;2.00;;;;;13.06;55.50;101612.16;5000599;28;73759;-82
2022/09/17 01:04:50;;;;;;;;;;;;;;;;;;;;;
2022/09/17 01:07:41;;;;;;;;;;;;;;;;;;;;;
2022/09/17 01:10:58;;;;;;;;;;;;;;;;;;;;;
2022/09/17 01:13:58;;;;;;;;;;;;;;;;;;;;;
2022/09/17 01:17:10;;;;;;;;;3.00;3.00;;;;;12.99;55.75;101634.16;5010811;28;71899;-82
2022/09/17 01:20:09;;;;;;;;;2.00;2.00;;;;;12.99;56.05;101639.44;4988949;28;45277;-82
2022/09/17 01:23:08;;;;;;;;;3.00;3.00;;;;;12.97;55.65;101652.69;4998902;28;45359;-83
2022/09/17 01:26:08;;;;;;;;;;;;;;;;;;;;;
2022/09/17 01:28:46;;;;;;;;;;;;;;;;;;;;;
2022/09/17 01:31:37;;;;;;;;;1.00;1.00;;;;;12.82;56.10;101642.09;4999340;28;67159;-82
2022/09/17 01:34:45;;;;;;;;;2.50;2.50;;;;;12.74;56.26;101633.25;4998730;28;45491;-82
2022/09/17 01:37:29;;;;;;;;;1.25;1.25;;;;;12.73;56.32;101640.31;5011849;28;47031;-82
2022/09/17 01:40:43;;;;;;;;;1.75;1.75;;;;;12.78;56.33;101662.34;5000261;28;45393;-83
2022/09/17 01:43:20;;;;;;;;;2.00;2.00;;;;;12.73;56.17;101661.44;5003973;28;45507;-83
2022/09/17 01:46:07;;;;;;;;;1.75;1.75;;;;;12.61;56.45;101645.56;5000036;28;45446;-82
2022/09/17 01:51:46;;;;;;;;;4.25;4.00;;;;;12.56;56.52;101645.56;5028087;28;45391;-82
2022/09/17 02:01:03;;;;;;;;;;;;;;;;;;;;;
2022/09/17 02:03:48;;;;;;;;;;;;;;;;;;;;;
2022/09/17 02:06:33;;;;;;;;;;;;;;;;;;;;;
2022/09/17 02:09:24;;;;;;;;;3.00;3.00;;;;;12.41;57.10;101669.28;4999071;28;73161;-82
2022/09/17 02:12:07;;;;;;;;;;;;;;;;;;;;;
2022/09/17 02:14:52;;;;;;;;;;;;;;;;;;;;;
2022/09/17 02:17:31;;;;;;;;;1.75;1.75;;;;;12.39;57.42;101657.81;5016165;28;67278;-83
2022/09/17 02:20:18;;;;;;;;;;;;;;;;;;;;;
2022/09/17 02:23:09;;;;;;;;;3.50;3.50;;;;;12.37;57.43;101646.38;4998348;28;75087;-83
2022/09/17 02:26:08;;;;;;;;;;;;;;;;;;;;;
2022/09/17 02:28:58;;;;;;;;;2.25;2.00;;;;;12.47;57.69;101653.44;4998555;28;68133;-83
2022/09/17 02:31:24;;;;;;;;;2.00;2.00;;;;;12.41;57.46;101636.72;4999395;28;45446;-83
2022/09/17 02:34:03;;;;;;;;;2.00;2.00;;;;;12.41;57.44;101636.72;4997892;28;47270;-83
2022/09/17 02:36:31;;;;;;;;;1.00;1.00;;;;;12.38;57.46;101637.59;5001616;28;45300;-83
2022/09/17 02:39:07;;;;;;;;;3.00;2.75;;;;;12.39;57.48;101636.69;5001627;28;45263;-83
2022/09/17 02:42:21;;;;;;;;;;;;;;;;;;;;;
2022/09/17 02:51:33;;;;;;;;;2.50;1.50;;;;;12.55;57.24;101654.34;5014966;28;45473;-83
2022/09/17 02:54:46;;;;;;;;;;;;;;;;;;;;;
2022/09/17 02:57:49;;;;;;;;;1.25;1.25;;;;;12.52;57.34;101667.56;5011733;28;74396;-83
2022/09/17 03:00:38;;;;;;;;;;;;;;;;;;;;;
2022/09/17 03:03:15;;;;;;;;;2.00;2.00;;;;;12.46;57.39;101659.63;5021680;28;68518;-82
2022/09/17 03:05:45;;;;;;;;;1.00;1.00;;;;;12.49;57.13;101659.63;5021260;28;45685;-83
2022/09/17 03:08:23;;;;;;;;;;;;;;;;;;;;;
2022/09/17 03:11:11;;;;;;;;;1.25;1.25;;;;;12.38;57.38;101648.16;5019691;28;73176;-82
2022/09/17 03:13:58;;;;;;;;;;;;;;;;;;;;;
2022/09/17 03:16:59;;;;;;;;;;;;;;;;;;;;;
2022/09/17 03:20:04;;;;;;;;;2.00;1.00;;;;;12.50;57.24;101663.13;5002651;28;75136;-83
2022/09/17 03:22:58;;;;;;;;;1.75;1.00;;;;;12.40;57.31;101656.06;5001815;28;45604;-83
2022/09/17 03:25:24;;;;;;;;;1.00;1.00;;;;;12.43;57.38;101664.00;5001802;28;45270;-81
2022/09/17 03:28:26;;;;;;;;;2.00;2.00;;;;;12.40;57.45;101658.69;5001871;28;45293;-83
2022/09/17 03:30:52;;;;;;;;;1.00;1.00;;;;;12.32;57.80;101651.66;5008868;28;46670;-82
2022/09/17 03:33:18;;;;;;;;;3.00;1.00;;;;;12.32;57.90;101675.41;5020751;28;45299;-83
2022/09/17 03:35:49;;;;;;;;;3.00;2.25;;;;;12.20;58.28;101658.63;5022406;28;45233;-82
2022/09/17 03:38:20;;;;;;;;;2.00;2.00;;;;;12.20;58.36;101662.16;5021987;28;45392;-82
2022/09/17 03:41:07;;;;;;;;;2.00;2.00;;;;;12.17;58.24;101663.91;5020649;28;47259;-83
2022/09/17 03:43:39;;;;;;;;;2.25;2.25;;;;;12.10;58.49;101658.56;5020563;28;45533;-82
2022/09/17 03:46:05;;;;;;;;;3.00;1.50;;;;;12.04;58.40;101658.56;5020422;28;45299;-82
2022/09/17 03:48:35;;;;;;;;;4.25;1.00;;;;;12.14;58.59;101670.94;5020970;28;45619;-82
2022/09/17 03:51:14;;;;;;;;;2.75;2.75;;;;;12.05;58.58;101657.66;5009131;28;47185;-82
2022/09/17 03:53:52;;;;;;;;;;;;;;;;;;;;;
2022/09/17 03:56:27;;;;;;;;;5.00;2.75;;;;;12.02;58.80;101648.88;5017295;28;68702;-81
2022/09/17 03:58:57;;;;;;;;;1.00;1.00;;;;;12.05;58.76;101670.00;5022097;28;45623;-81
2022/09/17 04:01:23;;;;;;;;;1.25;1.25;;;;;12.02;58.75;101675.25;5020286;28;47644;-81
2022/09/17 04:03:50;;;;;;;;;1.00;1.00;;;;;11.99;59.04;101672.59;5020764;28;45361;-81
2022/09/17 04:06:21;;;;;;;;;2.00;1.25;;;;;11.93;59.05;101675.22;5020930;28;45292;-81
2022/09/17 04:08:49;;;;;;;;;2.50;2.00;;;;;11.94;59.23;101685.75;5008772;28;45417;-81
2022/09/17 04:11:38;;;;;;;;;2.25;2.25;;;;;11.84;59.20;101668.06;5000887;28;46083;-82
2022/09/17 04:14:07;;;;;;;;;1.00;1.00;;;;;11.77;59.29;101683.00;5016409;28;45346;-79
2022/09/17 04:16:36;;;;;;;;;2.25;2.25;;;;;11.72;59.52;101681.22;5011659;28;45409;-81
2022/09/17 04:19:01;;;;;;;;;1.00;1.00;;;;;11.76;59.54;101690.88;5017205;28;45474;-81
2022/09/17 04:21:29;;;;;;;;;3.50;2.25;;;;;11.76;59.60;101697.06;5021367;28;47010;-81
2022/09/17 04:23:55;;;;;;;;;1.25;1.25;;;;;11.74;59.89;101700.56;5013088;28;45412;-83
2022/09/17 04:26:21;;;;;;;;;2.25;2.00;;;;;11.68;59.92;101699.66;5017215;28;45454;-81
2022/09/17 04:29:29;;;;;;;;;2.50;2.50;;;;;11.67;60.40;101707.53;5006645;28;45502;-81
2022/09/17 04:32:07;;;;;;;;;;;;;;;;;;;;;
2022/09/17 04:34:33;;;;;;;;;1.75;1.75;;;;;11.64;60.32;101723.34;5001656;28;71062;-82
2022/09/17 04:37:09;;;;;;;;;2.25;1.75;;;;;11.57;60.54;101718.91;5001579;28;44829;-82
2022/09/17 04:39:36;;;;;;;;;3.25;2.00;;;;;11.49;60.68;101716.19;5000153;28;45386;-81
2022/09/17 04:42:08;;;;;;;;;2.25;2.00;;;;;11.39;60.98;101703.81;5000100;28;48142;-81
2022/09/17 04:44:36;;;;;;;;;2.25;2.00;;;;;11.47;61.05;101710.91;5001330;28;45497;-81
2022/09/17 04:47:04;;;;;;;;;2.75;2.75;;;;;11.41;61.24;101702.97;5006511;28;45419;-81
2022/09/17 04:49:33;;;;;;;;;3.00;3.00;;;;;11.42;61.16;101706.47;5019242;28;45450;-80
2022/09/17 04:51:58;;;;;;;;;2.00;2.00;;;;;11.40;61.15;101708.22;5001016;28;45462;-82
2022/09/17 04:54:24;;;;;;;;;3.25;3.25;;;;;11.31;61.46;101698.47;5005951;28;45313;-82
2022/09/17 04:56:52;;;;;;;;;2.00;2.00;;;;;11.33;61.48;101714.28;5019838;28;45325;-81
2022/09/17 04:59:40;;;;;;;;;3.75;3.00;;;;;11.25;61.82;101711.59;5020876;28;45270;-81
2022/09/17 05:02:26;;;;;;;;;;;;;;;;;;;;;
2022/09/17 05:05:14;;;;;;;;;3.00;3.00;;;;;11.21;61.97;101715.97;5019354;28;73821;-82
2022/09/17 05:08:07;;;;;;;;;1.75;1.75;;;;;11.22;61.94;101732.66;5018644;28;45286;-81
2022/09/17 05:11:00;;;;;;;;;3.00;3.00;;;;;11.12;62.35;101726.44;5020353;28;45415;-82
2022/09/17 05:13:28;;;;;;;;;2.75;2.00;;;;;11.08;62.25;101716.72;5018884;28;45553;-82
2022/09/17 05:16:19;;;;;;;;;2.00;2.00;;;;;11.12;62.45;101722.88;5019190;28;45379;-82
2022/09/17 05:18:50;;;;;;;;;3.00;3.00;;;;;10.98;62.64;101710.44;5020927;28;45264;-82
2022/09/17 05:21:36;;;;;;;;;3.00;3.00;;;;;11.06;62.86;101731.63;5012100;28;45366;-82
2022/09/17 05:24:12;;;;;;;;;;;;;;;;;;;;;
2022/09/17 05:26:40;;;;;;;;;2.50;2.00;;;;;11.02;62.81;101730.72;5011403;28;71566;-82
2022/09/17 05:29:08;;;;;;;;;3.25;3.25;;;;;11.01;62.90;101741.22;5002156;28;45338;-81
2022/09/17 05:31:38;;;;;;;;;2.00;2.00;;;;;10.95;63.17;101730.63;4999092;28;45499;-82
2022/09/17 05:34:13;;;;;;;;;2.25;2.00;;;;;10.92;63.10;101726.22;5000435;28;45476;-82
2022/09/17 05:36:49;;;;;;;;;;;;;;;;;;;;;
2022/09/17 05:39:34;;;;;;;;;;;;;;;;;;;;;
2022/09/17 05:43:11;;;;;;;;;;;;;;;;;;;;;
2022/09/17 05:46:04;;;;;;;;;;;;;;;;;;;;;
2022/09/17 05:48:38;;;;;;;;;2.75;2.75;;;;;10.95;63.44;101728.00;5017817;28;72948;-82
2022/09/17 05:51:25;;;;;;;;;;;;;;;;;;;;;
2022/09/17 05:54:01;;;;;;;;;3.00;3.00;;;;;10.97;63.44;101735.03;5018559;28;72765;-83
2022/09/17 05:56:28;;;;;;;;;3.75;3.75;;;;;10.98;63.36;101733.28;5018008;28;47189;-83
2022/09/17 05:58:55;;;;;;;;;5.00;4.00;;;;;11.01;63.39;101731.59;5018444;28;45352;-78
2022/09/17 06:01:21;;;;;;;;;4.75;4.00;;;;;11.01;63.26;101738.59;5019252;28;45374;-80
2022/09/17 06:03:47;;;;;;;;;2.75;2.75;;;;;11.14;63.20;101753.66;5018064;28;45558;-80
2022/09/17 06:06:12;;;;;;;;;4.50;3.25;;;;;11.15;63.27;101746.66;5017569;28;47376;-79
2022/09/17 06:08:38;;;;;;;;;4.00;4.00;;;;;11.19;63.14;101746.69;5019633;28;45283;-78
2022/09/17 06:11:05;;;;;;;;;3.75;3.50;;;;;11.25;63.01;101756.41;5015664;28;45466;-78
2022/09/17 06:13:31;;;;;;;;;3.75;3.00;;;;;11.27;63.11;101749.41;5013483;28;45530;-78
2022/09/17 06:15:57;;;;;;;;;4.25;4.25;;;;;11.32;62.81;101755.59;5015280;28;46023;-79
2022/09/17 06:18:22;;;;;;;;;4.00;4.00;;;;;11.33;62.90;101757.34;5012771;28;45513;-77
2022/09/17 06:20:56;;;;;;;;;3.00;3.00;;;;;11.41;62.87;101763.63;5017763;28;45533;-78
2022/09/17 06:23:23;;;;;;;;;4.25;3.75;;;;;11.38;62.72;101745.09;5008902;28;45573;-78
2022/09/17 06:25:58;;;;;;;;;4.00;3.00;;;;;11.52;62.55;101762.81;5001111;28;48163;-79
2022/09/17 06:28:29;;;;;;;;;4.50;4.00;;;;;11.44;62.38;101750.44;5002494;28;45412;-79
2022/09/17 06:30:59;;;;;;;;;3.25;3.25;;;;;11.56;62.11;101776.03;5001219;28;45480;-79
2022/09/17 06:33:25;;;;;;;;;5.25;3.25;;;;;11.55;61.69;101766.38;5002303;28;45354;-80
2022/09/17 06:36:07;;;;;;;;;3.00;3.00;;;;;11.56;62.20;101772.53;5000956;28;46334;-79
2022/09/17 06:38:34;;;;;;;;;4.50;3.50;;;;;11.59;62.25;101773.41;5000485;28;45624;-80
2022/09/17 06:41:13;;;;;;;;;5.25;4.25;;;;;11.58;61.91;101765.50;5000963;28;45395;-79
2022/09/17 06:43:38;;;;;;;;;2.00;2.00;;;;;11.68;61.92;101781.44;5017517;28;45343;-79
2022/09/17 06:46:05;;;;;;;;;4.00;3.50;;;;;11.64;61.69;101769.06;5020417;28;47084;-79
2022/09/17 06:48:33;;;;;;;;;3.00;3.00;;;;;11.69;61.21;101774.41;5021534;28;45339;-79
2022/09/17 06:51:30;;;;;;;;;2.25;2.25;;;;;11.75;61.31;101786.75;5020280;28;45441;-81
2022/09/17 06:53:55;;;;;;;;;2.00;2.00;;;;;11.73;61.18;101781.44;5011910;28;45269;-78
2022/09/17 06:56:23;;;;;;;;;2.50;2.00;;;;;11.71;61.17;101780.56;5015616;28;46606;-80
2022/09/17 06:58:55;;;;;;;;;2.00;2.00;;;;;11.73;61.13;101770.00;5013829;28;45430;-83
2022/09/17 07:02:06;;;;;;;;;3.00;2.00;;;;;11.80;60.91;101788.56;5020525;28;45435;-83
2022/09/17 07:04:48;;;;;;;;;2.00;2.00;;;;;11.68;60.73;101762.06;5007595;28;45852;-83
2022/09/17 07:07:14;;;;;;;;;2.00;2.00;;;;;11.71;60.54;101767.38;5018580;28;47352;-79
2022/09/17 07:09:39;;;;;;;;;4.25;3.50;;;;;11.75;60.52;101774.44;5001069;28;45251;-80
2022/09/17 07:12:08;;;;;;;;;3.50;3.50;;;;;11.81;60.67;101782.38;5002048;28;45313;-80
2022/09/17 07:14:35;;;;;;;;;3.25;3.00;;;;;11.90;60.21;101787.78;5000334;28;45496;-82
2022/09/17 07:17:02;;;;;;;;;3.00;3.00;;;;;11.95;60.07;101784.28;5001622;28;46184;-82
2022/09/17 07:19:27;;;;;;;;;2.00;2.00;;;;;11.88;59.67;101763.13;5002656;28;45236;-81
2022/09/17 07:21:55;;;;;;;;;2.50;2.50;;;;;11.93;59.85;101768.47;5012915;28;45187;-82
2022/09/17 07:24:21;;;;;;;;;4.25;3.25;;;;;12.00;59.42;101772.91;5006729;28;45511;-82
2022/09/17 07:26:56;;;;;;;;;1.00;1.00;;;;;12.12;59.32;101787.94;5006688;28;47208;-83
2022/09/17 07:29:25;;;;;;;;;2.75;2.75;;;;;12.09;59.02;101772.09;5000028;28;45714;-82
2022/09/17 07:31:58;;;;;;;;;2.75;2.00;;;;;12.26;58.93;101788.03;4999583;28;45439;-83
2022/09/17 07:37:59;;;;;;;;;1.00;1.00;;;;;12.35;58.65;101774.91;5008993;28;45856;-84
2022/09/17 07:44:34;;;;;;;;;;;;;;;;;;;;;
2022/09/17 07:51:40;;;;;;;;;3.25;3.25;;;;;12.79;56.36;101787.41;5014524;28;45895;-83
2022/09/17 08:16:52;;;;;;;;;1.25;1.25;;;;;13.53;54.45;101785.88;4872641;29;45533;-82
2022/09/17 08:28:20;;;;;;;;;2.25;2.25;;;;;13.87;53.27;101783.22;5133385;23;46701;-83
2022/09/17 08:31:25;;;;;;;;;1.00;1.00;;;;;14.00;53.33;101786.72;4997330;28;45422;-84
2022/09/17 08:34:56;;;;;;;;;;;;;;;;;;;;;
2022/09/17 09:24:15;;;;;;;;;0.67;0.67;;;;;15.55;49.96;101820.63;5029131;28;45503;-93
2022/09/17 09:27:16;;;;;;;;;2.00;0.00;;;;;15.55;49.91;101821.50;5019056;28;47236;-92
2022/09/17 09:30:32;;;;;;;;;;;;;;;;;;;;;
2022/09/17 09:36:59;;;;;;;;;;;;;;;;;;;;;
2022/09/17 09:57:18;;;;;;;;;;;;;;;;;;;;;
2022/09/17 10:36:45;;;;;;;;;24.25;18.75;;;;;18.22;42.06;101814.69;5017404;28;45209;-90
2022/09/17 10:39:43;;;;;;;;;2.33;2.33;;;;;18.33;41.39;101817.16;4997576;28;48171;-94
2022/09/17 10:42:14;;;;;;;;;3.00;3.00;;;;;18.40;40.84;101816.16;4995595;28;45553;-85
2022/09/17 10:44:55;;;;;;;;;2.33;1.00;;;;;18.50;40.82;101812.41;5015445;28;45356;-84
2022/09/17 10:47:29;;;;;;;;;54.25;44.50;;;;;18.66;39.71;101811.19;5016335;28;45562;-82
2022/09/17 10:49:59;;;;;;;;;4.00;3.00;;;;;18.91;39.71;101810.69;5018204;28;46465;-90
2022/09/17 10:52:48;;;;;;;;;131.00;125.75;;;;;19.23;38.85;101798.44;5016724;28;45300;-85
2022/09/17 10:55:43;;;;;;;;;1.00;1.00;;;;;19.48;38.19;101793.38;5027661;28;45536;-85
2022/09/17 10:58:21;;;;;;;;;3.50;3.50;;;;;19.60;38.88;101804.66;5016578;28;45406;-85
2022/09/17 11:00:57;;;;;;;;;5.00;1.67;;;;;19.62;37.99;101807.31;5020246;28;46636;-86
2022/09/17 11:03:41;;;;;;;;;19.00;17.25;;;;;19.63;37.94;101809.06;5000968;28;45529;-83
2022/09/17 11:06:16;;;;;;;;;0.33;0.33;;;;;19.76;37.59;101801.66;5021404;28;45526;-82
2022/09/17 11:08:54;;;;;;;;;8.50;7.75;;;;;20.01;36.95;101781.38;4999071;28;45386;-85
2022/09/17 11:11:39;;;;;;;;;3.00;1.00;;;;;20.34;36.91;101785.84;4999128;28;48161;-82
2022/09/17 11:14:40;;;;;;;;;12.67;11.33;;;;;20.68;35.92;101767.09;5019398;28;45479;-84
2022/09/17 11:17:11;;;;;;;;;0.33;0.33;;;;;21.02;34.56;101763.41;5024007;28;45585;-84
2022/09/17 11:20:11;;;;;;;;;5.67;4.00;;;;;21.26;35.24;101773.34;5000905;28;45463;-83
2022/09/17 11:23:00;;;;;;;;;1.33;0.00;;;;;21.44;34.25;101768.34;5016106;28;46636;-86
2022/09/17 11:25:47;;;;;;;;;0.00;0.00;;;;;21.61;33.92;101752.59;5016487;28;45472;-86
2022/09/17 11:28:30;;;;;;;;;0.67;0.67;;;;;21.78;33.51;101762.72;5037063;28;45316;-87
2022/09/17 11:31:32;;;;;;;;;2.00;2.00;;;;;21.69;33.41;101761.25;5001516;28;45590;-89
2022/09/17 11:34:18;;;;;;;;;2.33;2.00;;;;;21.54;33.09;101759.97;5013365;28;47422;-90
2022/09/17 11:37:10;;;;;;;;;1.67;1.67;;;;;21.62;33.32;101766.84;5001017;28;45408;-88
2022/09/17 11:40:27;;;;;;;;;7.33;6.33;;;;;21.67;33.32;101762.22;5028314;28;45333;-90
2022/09/17 11:43:09;;;;;;;;;2.00;2.00;;;;;21.63;33.22;101763.28;4970975;28;45389;-88
2022/09/17 11:45:46;;;;;;;;;1.33;1.33;;;;;21.48;33.62;101770.88;5014887;28;45457;-92
2022/09/17 11:48:22;;;;;;;;;1.00;1.00;;;;;21.31;33.66;101765.16;5010841;28;45367;-89
2022/09/17 11:51:13;;;;;;;;;1.67;1.00;;;;;21.19;33.67;101766.41;5030087;28;44748;-88
2022/09/17 11:53:56;;;;;;;;;1.00;1.00;;;;;21.24;33.77;101761.78;5007570;28;45591;-92
2022/09/17 11:57:34;;;;;;;;;;;;;;;;;;;;;
2022/09/17 12:00:24;;;;;;;;;1.00;1.00;;;;;21.88;32.78;101749.91;4965288;28;73452;-91
2022/09/17 12:03:18;;;;;;;;;1.33;0.33;;;;;22.11;32.71;101739.22;4999173;28;44769;-88
2022/09/17 12:06:02;;;;;;;;;3.00;3.00;;;;;22.05;32.39;101752.84;5026428;28;45247;-86
2022/09/17 12:08:38;;;;;;;;;0.00;0.00;;;;;21.87;32.23;101761.56;5033807;28;45668;-87
2022/09/17 12:11:28;;;;;;;;;0.00;0.00;;;;;21.62;32.15;101759.69;5001668;28;45455;-85
2022/09/17 12:13:59;;;;;;;;;1.00;1.00;;;;;21.51;31.96;101754.69;4999929;28;45496;-83
2022/09/17 12:16:26;;;;;;;;;0.00;0.00;;;;;21.67;31.55;101752.38;4999264;28;45815;-83
2022/09/17 12:19:21;;;;;;;;;0.00;0.00;;;;;21.95;31.26;101746.94;4999886;28;47456;-81
2022/09/17 12:21:51;;;;;;;;;0.00;0.00;;;;;22.39;30.47;101744.47;4998904;28;45579;-82
2022/09/17 12:24:25;;;;;;;;;0.67;0.00;;;;;22.85;30.53;101740.06;5001018;28;45388;-82
2022/09/17 12:27:14;;;;;;;;;1.00;1.00;;;;;23.67;30.30;101744.84;5020161;28;45357;-83
2022/09/17 12:30:02;;;;;;;;;1.00;1.00;;;;;25.81;29.67;101733.06;4999850;28;48039;-82
2022/09/17 12:32:43;;;;;;;;;0.33;0.00;;;;;28.84;28.07;101729.94;5016329;28;45318;-81
2022/09/17 12:35:11;;;;;;;;;0.00;0.00;;;;;29.54;26.53;101732.56;5010683;28;45313;-82
2022/09/17 12:38:04;;;;;;;;;0.00;0.00;;;;;28.88;25.69;101728.78;5000030;28;45436;-81
2022/09/17 12:40:39;;;;;;;;;3.33;2.00;;;;;28.18;25.53;101728.72;5000191;28;47576;-82
2022/09/17 12:43:35;;;;;;;;;1.00;0.33;;;;;27.43;26.14;101726.84;5003015;28;45269;-80
2022/09/17 12:46:19;;;;;;;;;0.00;0.00;;;;;29.14;26.36;101721.69;5021319;28;45457;-81
2022/09/17 12:49:06;;;;;;;;;0.00;0.00;;;;;31.38;24.71;101716.69;5000405;28;45392;-81
2022/09/17 12:51:47;;;;;;;;;0.00;0.00;;;;;33.59;22.70;101710.66;4999732;28;47126;-81
2022/09/17 12:54:26;;;;;;;;;0.00;0.00;;;;;34.73;20.69;101706.13;5024171;28;45295;-81
2022/09/17 12:57:27;;;;;;;;;0.00;0.00;;;;;33.06;20.44;101699.66;5027328;28;45434;-82
2022/09/17 12:59:59;;;;;;;;;2.33;1.00;;;;;32.28;20.11;101709.63;5001014;28;45349;-82
2022/09/17 13:02:36;;;;;;;;;0.00;0.00;;;;;30.59;20.63;101710.72;5000697;28;46034;-81
2022/09/17 13:05:25;;;;;;;;;0.00;0.00;;;;;28.79;21.81;101722.13;5019482;28;45181;-82
2022/09/17 13:07:51;;;;;;;;;0.00;0.00;;;;;27.77;22.51;101716.69;5021417;28;45337;-82
2022/09/17 13:11:03;;;;;;;;;0.00;0.00;;;;;27.10;23.28;101717.97;4999764;28;45535;-81
2022/09/17 13:13:47;;;;;;;;;0.00;0.00;;;;;29.11;23.87;101713.75;5014959;28;46339;-82
2022/09/17 13:16:18;;;;;;;;;0.00;0.00;;;;;31.25;22.75;101710.41;5002947;28;45265;-81
2022/09/17 13:19:03;;;;;;;;;0.00;0.00;;;;;32.15;20.05;101706.16;5020637;28;45462;-82
2022/09/17 13:21:59;;;;;;;;;0.00;0.00;;;;;32.97;19.99;101710.47;5020359;28;45296;-82
2022/09/17 13:24:29;;;;;;;;;1.00;1.00;;;;;34.87;18.75;101700.25;4999992;28;46783;-82
2022/09/17 13:26:57;;;;;;;;;0.00;0.00;;;;;35.53;17.81;101696.00;4988677;28;45280;-82
2022/09/17 13:29:47;;;;;;;;;0.67;0.67;;;;;33.01;18.33;101703.78;4999677;28;45448;-82
2022/09/17 13:32:31;;;;;;;;;0.00;0.00;;;;;30.96;19.39;101698.03;4999946;28;45549;-82
2022/09/17 13:34:56;;;;;;;;;0.00;0.00;;;;;32.39;19.81;101699.72;5000242;28;47982;-82
2022/09/17 13:37:23;;;;;;;;;0.00;0.00;;;;;34.32;19.11;101707.09;5020799;28;45229;-82
2022/09/17 13:39:49;;;;;;;;;0.00;0.00;;;;;35.96;17.51;101708.34;5020825;28;45265;-82
2022/09/17 13:42:18;;;;;;;;;0.00;0.00;;;;;37.12;16.69;101701.47;5020585;28;45192;-82
2022/09/17 13:44:52;;;;;;;;;1.00;1.00;;;;;38.34;16.39;101715.34;4999138;28;47987;-82
2022/09/17 13:47:23;;;;;;;;;1.00;1.00;;;;;39.33;15.67;101699.19;5013331;28;45419;-82
2022/09/17 13:50:02;;;;;;;;;0.00;0.00;;;;;40.30;14.60;101687.16;5020870;28;45477;-82
2022/09/17 13:52:49;;;;;;;;;1.00;1.00;;;;;40.18;13.99;101695.97;5002256;28;45481;-82
2022/09/17 13:55:36;;;;;;;;;0.00;0.00;;;;;40.88;13.42;101686.91;5030559;28;45570;-82
2022/09/17 13:58:22;;;;;;;;;0.00;0.00;;;;;41.16;12.87;101685.34;5001490;28;45194;-82
2022/09/17 14:00:56;;;;;;;;;0.00;0.00;;;;;41.40;13.14;101687.06;5020337;28;45333;-83
2022/09/17 14:03:35;;;;;;;;;0.00;0.00;;;;;41.72;11.94;101682.28;5002535;28;45452;-82
2022/09/17 14:06:04;;;;;;;;;0.00;0.00;;;;;42.12;12.46;101690.38;5012352;28;46250;-83
2022/09/17 14:08:57;;;;;;;;;0.00;0.00;;;;;42.21;11.21;101689.22;5021239;28;45466;-78
2022/09/17 14:11:22;;;;;;;;;0.00;0.00;;;;;40.75;11.43;101682.00;5001075;28;45490;-81
2022/09/17 14:14:03;;;;;;;;;0.00;0.00;;;;;40.11;12.14;101685.66;4999331;28;45399;-82
2022/09/17 14:16:35;;;;;;;;;0.00;0.00;;;;;40.73;11.66;101673.03;5002082;28;47264;-83
2022/09/17 14:19:24;;;;;;;;;0.00;0.00;;;;;41.24;11.54;101678.03;5001716;28;45749;-83
2022/09/17 14:22:04;;;;;;;;;0.00;0.00;;;;;41.76;11.38;101674.50;5019926;28;45270;-83
2022/09/17 14:24:35;;;;;;;;;0.00;0.00;;;;;42.30;11.08;101683.38;5019555;28;45400;-83
2022/09/17 14:27:12;;;;;;;;;0.00;0.00;;;;;42.20;10.64;101673.66;5020461;28;45305;-83
2022/09/17 14:29:56;;;;;;;;;1.00;0.00;;;;;42.31;10.59;101676.78;5001743;28;45375;-84
2022/09/17 14:32:44;;;;;;;;;1.00;0.00;;;;;42.42;10.24;101675.47;5003394;28;45415;-84
2022/09/17 14:35:28;;;;;;;;;0.00;0.00;;;;;42.43;10.58;101679.97;5004877;28;45510;-83
2022/09/17 14:38:01;;;;;;;;;0.00;0.00;;;;;42.43;10.24;101681.91;5023872;28;45439;-83
2022/09/17 14:40:29;;;;;;;;;0.00;0.00;;;;;42.18;10.60;101675.75;5011035;28;45434;-83
2022/09/17 14:42:56;;;;;;;;;0.00;0.00;;;;;42.27;10.02;101667.16;5009777;28;45495;-83
2022/09/17 14:45:27;;;;;;;;;0.00;0.00;;;;;42.35;10.68;101666.25;5022968;28;45221;-83
2022/09/17 14:48:19;;;;;;;;;0.33;0.00;;;;;42.46;10.59;101662.97;5004229;28;47115;-83
2022/09/17 14:50:45;;;;;;;;;0.67;0.00;;;;;42.47;10.56;101670.22;5021858;28;45251;-83
2022/09/17 14:53:18;;;;;;;;;0.00;0.00;;;;;42.28;9.96;101677.19;5022236;28;45292;-83
2022/09/17 14:55:46;;;;;;;;;0.33;0.00;;;;;42.25;10.25;101660.97;4999130;28;45377;-83
2022/09/17 14:58:45;;;;;;;;;0.00;0.00;;;;;42.39;10.51;101664.78;4984340;28;46211;-83
2022/09/17 15:01:25;;;;;;;;;0.00;0.00;;;;;42.49;10.02;101661.72;4984224;28;45459;-83
2022/09/17 15:04:13;;;;;;;;;0.00;0.00;;;;;42.12;10.00;101659.94;5002233;28;45339;-83
2022/09/17 15:06:43;;;;;;;;;0.00;0.00;;;;;41.82;10.37;101652.44;4986554;28;45367;-83
2022/09/17 15:09:26;;;;;;;;;0.00;0.00;;;;;41.58;10.11;101658.25;5002379;28;45830;-83
2022/09/17 15:11:54;;;;;;;;;0.00;0.00;;;;;41.42;10.33;101662.00;5002149;28;45287;-83
2022/09/17 15:14:30;;;;;;;;;0.00;0.00;;;;;41.25;10.12;101660.41;4984347;28;45238;-84
2022/09/17 15:16:58;;;;;;;;;0.00;0.00;;;;;41.01;10.27;101662.31;4983700;28;45364;-83
2022/09/17 15:19:40;;;;;;;;;0.00;0.00;;;;;40.81;10.30;101652.78;4983907;28;47827;-83
2022/09/17 15:22:08;;;;;;;;;0.00;0.00;;;;;40.53;10.33;101656.03;4983723;28;45490;-83
2022/09/17 15:24:52;;;;;;;;;0.33;0.00;;;;;40.09;10.20;101662.91;4983621;28;45429;-83
2022/09/17 15:27:32;;;;;;;;;0.00;0.00;;;;;39.96;10.34;101657.06;5001886;28;45344;-83
2022/09/17 15:30:02;;;;;;;;;0.00;0.00;;;;;39.76;10.65;101664.00;4983743;28;48132;-83
2022/09/17 15:32:28;;;;;;;;;0.00;0.00;;;;;39.36;10.76;101658.34;4983788;28;46328;-83
2022/09/17 15:35:27;;;;;;;;;0.00;0.00;;;;;39.02;11.00;101667.59;4988992;28;45503;-82
2022/09/17 15:37:54;;;;;;;;;0.00;0.00;;;;;38.75;11.14;101656.84;5024766;28;45361;-82
2022/09/17 15:40:32;;;;;;;;;0.00;0.00;;;;;38.37;10.93;101648.13;5019661;28;47850;-82
2022/09/17 15:43:28;;;;;;;;;1.00;1.00;;;;;38.12;11.27;101659.03;5002761;28;45428;-82
2022/09/17 15:45:56;;;;;;;;;0.00;0.00;;;;;37.86;11.26;101659.00;5002443;28;45399;-82
2022/09/17 15:48:36;;;;;;;;;0.00;0.00;;;;;37.41;11.31;101659.16;5003142;28;45591;-82
2022/09/17 15:51:05;;;;;;;;;0.33;0.00;;;;;36.88;11.81;101650.75;5002914;28;48124;-83
2022/09/17 15:53:33;;;;;;;;;0.00;0.00;;;;;36.47;12.00;101645.81;5019561;28;45298;-83
2022/09/17 15:56:16;;;;;;;;;0.33;0.33;;;;;35.88;12.74;101656.16;5032478;28;45262;-83
2022/09/17 15:58:41;;;;;;;;;1.00;0.00;;;;;35.16;12.68;101658.38;5020814;28;45355;-83
2022/09/17 16:01:16;;;;;;;;;0.00;0.00;;;;;33.94;13.33;101660.25;5020704;28;46228;-83
2022/09/17 16:03:44;;;;;;;;;0.00;0.00;;;;;32.86;13.39;101660.38;5002343;28;45288;-83
2022/09/17 16:06:31;;;;;;;;;0.00;0.00;;;;;32.04;14.10;101662.53;5020849;28;45237;-83
2022/09/17 16:09:02;;;;;;;;;0.00;0.00;;;;;31.62;14.38;101667.63;4996236;28;45553;-83
2022/09/17 16:11:30;;;;;;;;;1.00;1.00;;;;;31.47;14.93;101669.72;5002697;28;47520;-82